ADDS TAF Data INFO
IDs: Format: Raw Decoded Include METARs

Data at: 1018 UTC 30 Jun 2016

Region: TOP
KATL 300931Z 3010/0112 26004KT P6SM SCT070 SCT150 BKN250
  FM301400 24007KT P6SM SCT050
  PROB30 3019/3023 VRB10G25KT 4SM TSRA BKN035CB
  FM010100 23005KT P6SM SCT100 BKN250


KBOS 300821Z 3008/0112 32008KT P6SM SCT150
  FM301400 35005KT P6SM FEW250
  FM301600 10009KT P6SM FEW250
  FM302100 14011KT P6SM FEW080
  FM302300 18010KT P6SM FEW200
  FM010300 22008KT P6SM FEW250
  FM010900 23004KT P6SM SCT250


KBWI 300848Z 3009/0112 32004KT P6SM FEW250
  FM301400 07004KT P6SM FEW250
  FM301700 15004KT P6SM SCT250
  FM302000 16007KT P6SM BKN060
  FM010500 VRB03KT P6SM BKN070
  FM010900 VRB03KT 5SM BR BKN060


KCLE 300900Z 3009/0112 18003KT P6SM BKN250
  FM302000 32006KT P6SM BKN250


KCLT 301001Z 3010/0106 01004KT 5SM BR OVC012
  TEMPO 3010/3014 3SM BR BKN008
  FM301400 08004KT P6SM SCT050
  FM301700 12005KT P6SM VCSH BKN050
  PROB30 3020/0102 4SM -TSRA OVC025CB


KCVG 300852Z 3009/0112 VRB03KT P6SM SCT250
  FM301600 VRB03KT P6SM FEW040 SCT250
  FM010100 18002KT P6SM SCT080 BKN200
  FM010800 20004KT P6SM BKN100


KDCA 300848Z 3009/0106 33004KT P6SM BKN070
  FM301200 36004KT P6SM SCT080
  FM301700 15004KT P6SM SCT050
  FM302000 16006KT P6SM BKN050


KDEN 301012Z 3010/0112 34006KT P6SM SCT120 BKN200
  FM301500 36007KT P6SM BKN140
  FM301700 04011KT P6SM SCT050 BKN100
  FM302000 09013G21KT P6SM BKN060 OVC090
  PROB30 3020/3024 VRB20G30KT -TSRA BKN040CB
  FM010000 10013KT P6SM BKN040 OVC060
  PROB30 0100/0103 -SHRA BKN040
  FM010300 12008KT P6SM VCSH SCT040 BKN080


KDFW 300900Z 3009/0112 14007KT P6SM FEW050 SCT250

KDTW 300902Z 3009/0112 VRB03KT P6SM BKN250
  FM301500 22008KT P6SM SCT250
  FM010400 19005KT P6SM BKN060 BKN150


TAF AMD KEWR 300837Z 3009/0112 34006KT P6SM SKC
  FM301800 16007KT P6SM FEW060
  FM010200 20006KT P6SM FEW060 SCT250


KFLL 300855Z 3009/0106 16004KT P6SM FEW025 SCT070 SCT250
  FM301400 16008KT P6SM VCSH SCT025 SCT050 SCT250
  FM301700 14010KT P6SM VCTS SCT030CB SCT060 BKN250
  FM010100 VRB04KT P6SM SCT025 BKN250


KIAD 300848Z 3009/0112 32004KT P6SM SCT250
  FM301500 VRB03KT P6SM SCT050
  FM302000 17005KT P6SM BKN040
  FM010900 VRB03KT 5SM BR BKN050


KIAH 300918Z 3009/0112 01004KT P6SM FEW035 SCT250
  FM301800 07007KT P6SM SCT040
  FM010000 12005KT P6SM FEW050


KJFK 300837Z 3009/0112 34006KT P6SM SKC
  FM301600 21007KT P6SM FEW060
  FM301900 19012KT P6SM FEW060
  FM010300 21007KT P6SM FEW060 SCT250


KLAS 300847Z 3009/0106 05008KT P6SM FEW120
  FM301900 19010G16KT P6SM SCT100
  FM010000 16012G22KT P6SM SCT100 BKN200


KLAX 300903Z 3009/0112 VRB03KT P6SM OVC010
  FM301700 26007KT P6SM SCT010
  FM302000 26015KT P6SM SCT012
  FM010200 25007KT P6SM BKN010
  FM010900 VRB03KT 5SM BR OVC008


TAF AMD KLGA 300837Z 3009/0106 34006KT P6SM SKC
  FM301300 05005KT P6SM FEW060
  FM301900 19010KT P6SM FEW060
  FM010300 21007KT P6SM FEW060 SCT250


KMCO 300901Z 3009/0106 19003KT P6SM FEW005 SCT050 SCT300
  FM301300 20005KT P6SM SCT035 SCT050
  FM301800 21006KT P6SM VCTS SCT035CB BKN050
  TEMPO 3019/3022 3SM TSRA BKN030CB
  FM010000 17004KT P6SM VCSH SCT030 BKN080 BKN250


KMDW 300856Z 3009/0106 21005KT P6SM SKC
  FM301600 21007KT P6SM FEW060 SCT250
  FM010200 23007KT P6SM VCTS SCT040CB BKN080
  TEMPO 0103/0105 4SM TSRA BKN040CB


KMEM 300857Z 3009/0106 07005KT P6SM SKC
  FM301500 02005KT P6SM FEW150
  FM010000 VRB03KT P6SM FEW050


KMIA 300855Z 3009/0106 VRB03KT P6SM FEW025 SCT070 SCT250
  FM301400 16006KT P6SM VCSH SCT025 SCT050 SCT250
  FM301700 14008KT P6SM VCTS SCT035CB SCT060 BKN250
  FM010100 VRB03KT P6SM VCSH SCT025 BKN250


KMSP 300813Z 3008/0112 23004KT P6SM FEW150
  FM301400 28006KT P6SM VCSH SCT040 BKN070
  TEMPO 3015/3018 5SM -TSRA BKN040CB
  FM301900 32010G17KT P6SM SCT060 BKN100
  FM010100 34007KT P6SM FEW050 SCT100
  FM010800 04006KT P6SM FEW050


KORD 300856Z 3009/0112 VRB03KT P6SM SKC
  FM301600 21008KT P6SM FEW060 SCT250
  FM010200 23007KT P6SM VCTS SCT040CB BKN080
  TEMPO 0103/0105 4SM TSRA BKN040CB
  FM010600 30007KT P6SM VCSH BKN040
  FM010900 33010KT P6SM BKN020


KPDX 300910Z 3009/0106 33005KT P6SM FEW015
  FM301000 33003KT P6SM OVC015
  FM301600 31005KT P6SM OVC023
  FM302000 31008KT P6SM SKC
  FM010000 33010G15KT P6SM SKC


KPHL 300831Z 3009/0112 30006KT P6SM SKC
  FM301700 24010KT P6SM FEW050
  FM010400 16006KT P6SM FEW200


KPHX 300901Z 3009/0106 14015G26KT P6SM VCSH SCT100 OVC200
  FM301500 03007KT P6SM SCT060 BKN080
  FM301900 16007KT P6SM SCT080 BKN150


KPIT 300856Z 3009/0112 00000KT P6SM BKN250
  FM301300 00000KT P6SM SKC


KSAN 301004Z 3010/0112 VRB05KT P6SM OVC009
  FM301700 28008KT P6SM SCT010


KSEA 300906Z 3009/0112 22005KT P6SM BKN027
  FM301100 16006KT P6SM OVC010
  FM301900 24006KT P6SM OVC020
  FM302000 29006KT P6SM FEW020


KSFO 300924Z 3009/0112 24005KT P6SM FEW013
  FM301200 21005KT P6SM OVC008
  FM301730 33006KT P6SM SCT012
  FM302100 29014KT P6SM FEW015
  FM010500 28010KT P6SM SCT012
  FM010800 28009KT P6SM BKN010


KSLC 300902Z 3009/0112 15006KT P6SM FEW120 BKN150
  FM301800 32010KT P6SM SCT070 BKN130
  FM010200 17008KT P6SM SCT070 BKN120


KSTL 300852Z 3009/0112 10004KT P6SM SCT100
  FM301500 17007KT P6SM BKN040
  FM302200 21008KT P6SM VCTS BKN050CB
  FM010300 VRB03KT P6SM BKN200


KTPA 300859Z 3009/0106 16004KT P6SM SCT030 SCT250
  FM301500 21006KT P6SM SCT030 SCT100
  FM301900 25008KT P6SM SCT025 SCT250
  FM010000 26007KT P6SM SCT035 SCT250
  FM010200 19005KT P6SM SCT050 BKN250